Time;durP1;ratioP1;P1;durP2;ratioP2;P2;SDS_P1;SDS_P2;PMS_P1;PMS_P2;Temp;Humidity;BMP_temperature;BMP_pressure;BME280_temperature;BME280_humidity;BME280_pressure;Samples;Min_cycle;Max_cycle;Signal;HPM_P1;HPM_P2
2022/04/21 00:00:43;;;;;;;7.10;4.43;;;9.20;99.90;;;;;;5113074;28;20403;-69
2022/04/21 00:03:09;;;;;;;10.55;5.40;;;9.10;99.90;;;;;;5113206;28;20351;-69
2022/04/21 00:05:36;;;;;;;10.00;4.80;;;9.00;99.90;;;;;;5113236;28;20484;-68
2022/04/21 00:08:02;;;;;;;9.18;5.38;;;9.10;99.90;;;;;;5113104;28;20042;-69
2022/04/21 00:10:28;;;;;;;7.05;5.30;;;9.00;99.90;;;;;;5094344;28;20048;-68
2022/04/21 00:12:54;;;;;;;9.68;5.15;;;9.10;99.90;;;;;;5112885;28;20039;-68
2022/04/21 00:15:21;;;;;;;8.55;5.38;;;9.10;99.90;;;;;;5113138;28;20464;-67
2022/04/21 00:17:47;;;;;;;13.40;5.00;;;9.00;99.90;;;;;;5094811;28;20126;-68
2022/04/21 00:20:13;;;;;;;11.95;5.38;;;8.90;99.90;;;;;;5112588;28;20115;-69
2022/04/21 00:25:23;;;;;;;8.02;5.28;;;8.90;99.90;;;;;;5112982;28;20046;-69
2022/04/21 00:27:49;;;;;;;9.85;5.63;;;8.90;99.90;;;;;;5094388;28;20083;-68
2022/04/21 00:30:17;;;;;;;9.38;4.90;;;8.80;99.90;;;;;;5112509;28;20036;-69
2022/04/21 00:32:43;;;;;;;10.23;5.53;;;8.90;99.90;;;;;;5112803;28;20036;-68
2022/04/21 00:35:11;;;;;;;8.23;5.28;;;8.80;99.90;;;;;;5112565;28;20032;-68
2022/04/21 00:37:44;;;;;;;16.58;6.32;;;8.80;99.90;;;;;;5112548;28;20036;-68
2022/04/21 00:40:10;;;;;;;10.18;6.55;;;8.80;99.90;;;;;;5112396;28;20070;-68
2022/04/21 00:42:36;;;;;;;7.95;5.07;;;8.70;99.90;;;;;;5112660;28;20381;-68
2022/04/21 00:45:02;;;;;;;11.65;5.88;;;8.70;99.90;;;;;;5112108;28;20058;-69
2022/04/21 00:47:29;;;;;;;12.15;5.63;;;8.70;99.90;;;;;;5111727;28;20035;-69
2022/04/21 00:49:54;;;;;;;7.97;5.82;;;8.70;99.90;;;;;;5111779;28;20048;-68
2022/04/21 00:52:21;;;;;;;8.00;5.55;;;8.70;99.90;;;;;;5112439;28;20123;-69
2022/04/21 00:54:47;;;;;;;9.18;5.55;;;8.70;99.90;;;;;;5094255;28;20047;-68
2022/04/21 00:57:13;;;;;;;12.02;6.32;;;8.70;99.90;;;;;;5112112;28;20035;-68
2022/04/21 00:59:38;;;;;;;11.80;5.85;;;8.60;99.90;;;;;;5111775;28;20099;-69
2022/04/21 01:04:49;;;;;;;9.48;5.40;;;8.50;99.90;;;;;;5093563;28;20059;-69
2022/04/21 01:07:15;;;;;;;8.82;5.32;;;8.50;99.90;;;;;;5093917;28;20385;-68
2022/04/21 01:09:40;;;;;;;8.48;5.55;;;8.40;99.90;;;;;;5093275;28;20051;-68
2022/04/21 01:12:11;;;;;;;10.93;6.03;;;8.30;99.90;;;;;;5111981;28;20039;-68
2022/04/21 01:14:38;;;;;;;8.30;5.60;;;8.30;99.90;;;;;;5111867;28;20080;-69
2022/04/21 01:17:05;;;;;;;10.02;5.50;;;8.30;99.90;;;;;;5111783;28;20038;-68
2022/04/21 01:19:30;;;;;;;11.00;5.63;;;8.30;99.90;;;;;;5111802;28;20040;-68
2022/04/21 01:21:56;;;;;;;12.02;5.63;;;8.30;99.90;;;;;;5112003;28;20769;-68
2022/04/21 01:24:21;;;;;;;11.23;6.75;;;8.30;99.90;;;;;;5111564;28;20130;-68
2022/04/21 01:26:48;;;;;;;9.73;6.05;;;8.30;99.90;;;;;;5111713;28;20077;-68
2022/04/21 01:29:14;;;;;;;10.13;6.28;;;8.30;99.90;;;;;;5111206;28;20065;-69
2022/04/21 01:31:39;;;;;;;12.55;6.05;;;8.30;99.90;;;;;;5111540;28;20027;-69
2022/04/21 01:34:05;;;;;;;12.32;6.13;;;8.30;99.90;;;;;;5111433;28;20035;-69
2022/04/21 01:36:31;;;;;;;14.88;6.00;;;8.30;99.90;;;;;;5111677;28;20032;-68
2022/04/21 01:41:40;;;;;;;10.98;7.03;;;8.20;99.90;;;;;;5111521;28;20123;-68
2022/04/21 01:44:06;;;;;;;14.55;6.35;;;8.20;99.90;;;;;;5111200;28;20118;-68
2022/04/21 01:46:32;;;;;;;9.15;5.82;;;8.20;99.90;;;;;;5111623;28;20039;-68
2022/04/21 01:48:58;;;;;;;14.07;6.30;;;8.20;99.90;;;;;;5111081;28;20096;-69
2022/04/21 01:51:24;;;;;;;10.93;6.68;;;8.20;99.90;;;;;;5111528;28;20036;-68
2022/04/21 01:53:49;;;;;;;9.30;6.22;;;8.30;99.90;;;;;;5111341;28;20118;-69
2022/04/21 01:56:16;;;;;;;12.60;6.68;;;8.20;99.90;;;;;;5093831;28;20036;-68
2022/04/21 01:58:42;;;;;;;9.80;6.00;;;8.10;99.90;;;;;;5112494;28;20039;-69
2022/04/21 02:01:08;;;;;;;11.70;6.47;;;8.10;99.90;;;;;;5112934;28;20562;-68
2022/04/21 02:03:34;;;;;;;11.70;6.25;;;8.00;99.90;;;;;;5113057;28;20043;-69
2022/04/21 02:06:00;;;;;;;12.80;6.78;;;8.00;99.90;;;;;;5093784;28;20063;-69
2022/04/21 02:08:27;;;;;;;10.30;6.05;;;8.00;99.90;;;;;;5110966;28;20078;-70
2022/04/21 02:10:53;;;;;;;15.68;7.40;;;8.00;99.90;;;;;;5111026;28;20044;-68
2022/04/21 02:13:19;;;;;;;10.30;6.65;;;8.00;99.90;;;;;;5110990;28;20034;-69
2022/04/21 02:15:45;;;;;;;11.77;7.15;;;8.00;99.90;;;;;;5093059;28;20043;-68
2022/04/21 02:18:10;;;;;;;13.77;8.02;;;8.00;99.90;;;;;;5111142;28;20074;-68
2022/04/21 02:20:36;;;;;;;16.02;8.45;;;8.00;99.90;;;;;;5110897;28;20043;-69
2022/04/21 02:23:01;;;;;;;18.65;8.38;;;8.00;99.90;;;;;;5092918;28;20039;-68
2022/04/21 02:25:27;;;;;;;16.08;9.27;;;8.00;99.90;;;;;;5096581;28;20040;-68
2022/04/21 02:27:53;;;;;;;17.00;9.73;;;8.00;99.90;;;;;;5090356;28;20488;-68
2022/04/21 02:30:19;;;;;;;14.20;9.30;;;8.00;99.90;;;;;;5072272;28;20044;-69
2022/04/21 02:32:45;;;;;;;20.42;9.80;;;7.90;99.90;;;;;;5090635;28;20047;-69
2022/04/21 02:35:13;;;;;;;19.50;9.98;;;7.90;99.90;;;;;;5072586;28;20036;-69
2022/04/21 02:37:44;;;;;;;17.40;9.75;;;7.90;99.90;;;;;;5090569;28;20047;-68
2022/04/21 02:40:10;;;;;;;20.38;10.23;;;7.90;99.90;;;;;;5090239;28;20076;-68
2022/04/21 02:42:39;;;;;;;18.73;10.50;;;7.90;99.90;;;;;;5090407;28;20044;-68
2022/04/21 02:45:09;;;;;;;19.95;10.13;;;8.00;99.90;;;;;;5090463;28;20044;-69
2022/04/21 02:47:36;;;;;;;19.88;10.57;;;7.90;99.90;;;;;;5090617;28;20162;-69
2022/04/21 02:50:02;;;;;;;15.82;8.85;;;7.80;99.90;;;;;;5089947;28;20504;-69
2022/04/21 02:52:28;;;;;;;14.10;9.20;;;7.70;99.90;;;;;;5090467;28;20117;-68
2022/04/21 02:57:38;;;;;;;15.98;8.95;;;7.80;99.90;;;;;;5090493;28;20040;-68
2022/04/21 03:00:06;;;;;;;14.70;8.38;;;7.80;99.90;;;;;;5089922;28;20508;-67
2022/04/21 03:02:32;;;;;;;15.05;8.60;;;7.70;99.90;;;;;;5105604;28;20054;-68
2022/04/21 03:04:57;;;;;;;14.13;7.93;;;7.70;99.90;;;;;;5109699;28;20035;-68
2022/04/21 03:07:23;;;;;;;15.75;8.43;;;7.70;99.90;;;;;;5110584;28;20045;-68
2022/04/21 03:09:50;;;;;;;13.57;8.25;;;7.70;99.90;;;;;;5112746;28;20039;-67
2022/04/21 03:12:15;;;;;;;16.13;8.32;;;7.70;99.90;;;;;;5113463;28;20460;-69
2022/04/21 03:14:42;;;;;;;12.85;7.90;;;7.60;99.90;;;;;;5115878;28;20040;-67
2022/04/21 03:17:09;;;;;;;16.48;8.98;;;7.70;99.90;;;;;;5115355;28;20048;-68
2022/04/21 03:19:35;;;;;;;12.50;9.00;;;7.60;99.90;;;;;;5114657;28;20039;-67
2022/04/21 03:24:46;;;;;;;12.40;8.48;;;7.60;99.90;;;;;;5114197;28;20116;-68
2022/04/21 03:27:12;;;;;;;19.00;8.52;;;7.70;99.90;;;;;;5114058;28;20507;-68
2022/04/21 03:29:39;;;;;;;13.95;8.38;;;7.60;99.90;;;;;;5113819;28;20501;-67
2022/04/21 03:32:13;;;;;;;12.57;8.07;;;7.60;99.90;;;;;;5114258;28;20039;-67
2022/04/21 03:34:43;;;;;;;14.30;8.30;;;7.60;99.90;;;;;;5114006;28;20394;-67
2022/04/21 03:37:13;;;;;;;14.98;7.78;;;7.50;99.90;;;;;;5113785;28;20491;-67
2022/04/21 03:39:39;;;;;;;12.48;8.52;;;7.50;99.90;;;;;;5095177;28;20040;-67
2022/04/21 03:42:07;;;;;;;10.88;7.68;;;7.50;99.90;;;;;;5113730;28;20051;-67
2022/04/21 03:44:34;;;;;;;17.70;9.13;;;7.50;99.90;;;;;;5094855;28;20055;-67
2022/04/21 03:47:00;;;;;;;15.65;9.13;;;7.50;99.90;;;;;;5113585;28;20036;-68
2022/04/21 03:49:29;;;;;;;14.95;8.45;;;7.40;99.90;;;;;;5113212;28;20055;-68
2022/04/21 03:51:56;;;;;;;13.02;7.93;;;7.40;99.90;;;;;;5113418;28;20039;-68
2022/04/21 03:54:22;;;;;;;16.20;8.98;;;7.40;99.90;;;;;;5113297;28;20549;-68
2022/04/21 03:56:52;;;;;;;12.70;8.30;;;7.40;99.90;;;;;;5113539;28;20122;-67
2022/04/21 03:59:18;;;;;;;16.73;9.00;;;7.40;99.90;;;;;;5113059;28;20055;-67
2022/04/21 04:01:44;;;;;;;19.23;9.10;;;7.40;99.90;;;;;;5094916;28;20053;-67
2022/04/21 04:04:10;;;;;;;14.15;8.43;;;7.40;99.90;;;;;;5113268;28;20040;-67
2022/04/21 04:12:07;;;;;;;14.50;8.85;;;7.50;99.90;;;;;;5094864;28;20048;-68
2022/04/21 04:14:32;;;;;;;14.13;8.93;;;7.40;99.90;;;;;;5113067;28;20039;-67
2022/04/21 04:16:58;;;;;;;13.02;8.38;;;7.30;99.90;;;;;;5094923;28;20072;-67
2022/04/21 04:19:23;;;;;;;18.25;8.77;;;7.20;99.90;;;;;;5112407;28;20040;-68
2022/04/21 04:21:49;;;;;;;14.88;8.32;;;7.20;99.90;;;;;;5110230;28;20043;-68
2022/04/21 04:24:15;;;;;;;12.48;8.30;;;7.20;99.90;;;;;;5109910;28;20046;-68
2022/04/21 04:26:41;;;;;;;13.77;8.25;;;7.20;99.90;;;;;;5112302;28;20420;-67
2022/04/21 04:29:06;;;;;;;13.82;9.52;;;7.20;99.90;;;;;;5112188;28;20075;-67
2022/04/21 04:31:33;;;;;;;14.50;9.20;;;7.20;99.90;;;;;;5111541;28;20039;-68
2022/04/21 04:34:00;;;;;;;16.52;8.77;;;7.20;99.90;;;;;;5077324;28;20071;-67
2022/04/21 04:36:25;;;;;;;13.57;8.32;;;7.20;99.90;;;;;;5112818;28;20035;-67
2022/04/21 04:38:51;;;;;;;14.18;8.10;;;7.30;99.90;;;;;;5112395;28;20605;-67
2022/04/21 04:44:01;;;;;;;14.85;8.77;;;7.20;99.90;;;;;;5112447;28;20043;-67
2022/04/21 04:46:37;;;;;;;14.02;8.98;;;7.20;99.90;;;;;;5112391;28;20396;-67
2022/04/21 04:49:04;;;;;;;17.08;8.30;;;7.20;99.90;;;;;;5093751;28;20043;-68
2022/04/21 04:51:31;;;;;;;14.27;7.95;;;7.20;99.90;;;;;;5112467;28;20039;-68
2022/04/21 04:53:56;;;;;;;12.40;8.00;;;7.20;99.90;;;;;;5093962;28;20861;-67
2022/04/21 04:56:22;;;;;;;13.70;8.18;;;7.10;99.90;;;;;;5112248;28;20039;-67
2022/04/21 04:58:48;;;;;;;13.68;8.68;;;7.10;99.90;;;;;;5111609;28;20114;-68
2022/04/21 05:01:26;;;;;;;18.33;8.70;;;7.20;99.90;;;;;;5112294;28;20044;-68
2022/04/21 05:03:53;;;;;;;17.05;8.90;;;7.20;99.90;;;;;;5111668;28;20042;-68
2022/04/21 05:06:19;;;;;;;11.32;8.02;;;7.20;99.90;;;;;;5109109;28;20071;-68
2022/04/21 05:08:44;;;;;;;19.40;8.88;;;7.30;99.90;;;;;;5111660;28;20073;-67
2022/04/21 05:11:11;;;;;;;21.00;8.75;;;7.30;99.90;;;;;;5111785;28;20046;-67
2022/04/21 05:13:36;;;;;;;18.52;8.55;;;7.40;99.90;;;;;;5111657;28;20106;-67
2022/04/21 05:16:02;;;;;;;19.23;8.90;;;7.50;99.90;;;;;;5111764;28;20126;-66
2022/04/21 05:18:28;;;;;;;12.35;8.20;;;7.60;99.90;;;;;;5107356;28;20031;-67
2022/04/21 05:20:54;;;;;;;10.23;7.65;;;7.80;99.90;;;;;;5109287;28;20067;-67
2022/04/21 05:23:21;;;;;;;14.05;8.57;;;7.80;99.90;;;;;;5111385;28;20069;-67
2022/04/21 05:25:47;;;;;;;15.48;8.43;;;7.90;99.90;;;;;;5111410;28;20047;-69
2022/04/21 05:28:13;;;;;;;12.18;8.07;;;8.00;99.90;;;;;;5111407;28;20040;-67
2022/04/21 05:30:58;;;;;;;13.90;9.07;;;8.20;99.90;;;;;;5111510;28;20036;-71
2022/04/21 05:33:26;;;;;;;16.55;9.38;;;8.30;99.90;;;;;;5092985;28;20036;-68
2022/04/21 05:35:52;;;;;;;15.82;9.30;;;8.40;99.90;;;;;;5111477;28;20040;-67
2022/04/21 05:38:20;;;;;;;13.43;7.55;;;8.40;99.90;;;;;;5111406;28;20042;-67
2022/04/21 05:40:46;;;;;;;14.27;8.40;;;8.50;99.90;;;;;;5111342;28;20051;-67
2022/04/21 05:43:14;;;;;;;17.63;8.65;;;8.60;99.90;;;;;;5111353;28;20092;-68
2022/04/21 05:45:39;;;;;;;17.92;9.00;;;8.60;99.90;;;;;;5111445;28;20043;-68
2022/04/21 05:48:05;;;;;;;15.40;9.57;;;8.70;99.90;;;;;;5111425;28;20040;-67
2022/04/21 05:50:32;;;;;;;15.27;8.40;;;8.80;99.90;;;;;;5110853;28;20035;-67
2022/04/21 05:53:01;;;;;;;13.35;8.25;;;8.90;99.90;;;;;;5111214;28;20036;-67
2022/04/21 05:55:28;;;;;;;14.30;8.70;;;9.00;99.90;;;;;;5111105;28;20032;-68
2022/04/21 05:57:54;;;;;;;14.25;8.82;;;9.00;99.90;;;;;;5111293;28;20046;-66
2022/04/21 06:00:20;;;;;;;13.10;8.65;;;9.00;99.90;;;;;;5110921;28;20044;-67
2022/04/21 06:02:46;;;;;;;12.50;7.93;;;9.00;99.90;;;;;;5093173;28;20046;-67
2022/04/21 06:05:11;;;;;;;13.80;8.38;;;9.10;99.90;;;;;;5092737;28;20486;-68
2022/04/21 06:07:37;;;;;;;14.45;8.30;;;9.20;99.90;;;;;;5111124;28;20097;-67
2022/04/21 06:10:03;;;;;;;13.95;8.55;;;9.40;99.90;;;;;;5092443;28;20039;-67
2022/04/21 06:12:29;;;;;;;14.98;8.45;;;9.40;99.90;;;;;;5111445;28;20036;-67
2022/04/21 06:14:55;;;;;;;12.38;8.10;;;9.40;99.90;;;;;;5111186;28;20040;-66
2022/04/21 06:17:20;;;;;;;12.25;8.02;;;9.30;99.90;;;;;;5111194;28;20035;-67
2022/04/21 06:19:47;;;;;;;13.18;8.88;;;9.50;99.90;;;;;;5110653;28;20051;-67
2022/04/21 06:22:13;;;;;;;15.98;8.55;;;9.50;99.90;;;;;;5110977;28;20050;-67
2022/04/21 06:24:39;;;;;;;12.93;7.55;;;9.60;99.90;;;;;;5111133;28;20118;-67
2022/04/21 06:27:04;;;;;;;12.52;7.35;;;9.60;99.90;;;;;;5111052;28;20035;-67
2022/04/21 06:29:30;;;;;;;14.27;7.97;;;9.70;99.90;;;;;;5110726;28;20050;-67
2022/04/21 06:31:56;;;;;;;10.98;7.13;;;9.70;99.90;;;;;;5111005;28;20754;-67
2022/04/21 06:34:24;;;;;;;12.80;7.15;;;9.80;99.90;;;;;;5110904;28;20050;-66
2022/04/21 06:36:50;;;;;;;11.57;7.32;;;9.80;99.90;;;;;;5092550;28;20043;-66
2022/04/21 06:39:15;;;;;;;13.00;6.65;;;9.90;99.90;;;;;;5075509;28;20392;-67
2022/04/21 06:41:41;;;;;;;17.65;7.72;;;10.00;99.90;;;;;;5111011;28;20054;-67
2022/04/21 06:49:35;;;;;;;11.77;6.55;;;10.20;99.90;;;;;;5114217;28;20074;-66
2022/04/21 06:52:00;;;;;;;7.80;5.85;;;10.30;99.90;;;;;;5096600;28;20491;-67
2022/04/21 06:54:26;;;;;;;13.73;6.10;;;10.30;99.90;;;;;;5114722;28;20139;-66
2022/04/21 06:56:51;;;;;;;11.85;6.22;;;10.40;99.90;;;;;;5114688;28;20411;-67
2022/04/21 06:59:17;;;;;;;8.07;5.63;;;10.60;99.90;;;;;;5114039;28;20410;-67
2022/04/21 07:01:46;;;;;;;6.95;5.20;;;10.60;99.90;;;;;;5114457;28;20474;-67
2022/04/21 07:04:12;;;;;;;9.73;5.32;;;10.70;99.90;;;;;;5114470;28;20039;-67
2022/04/21 07:06:38;;;;;;;7.30;5.13;;;10.80;99.90;;;;;;5096220;28;20040;-69
2022/04/21 07:09:04;;;;;;;8.40;5.68;;;10.90;99.90;;;;;;5095635;28;20039;-72
2022/04/21 07:11:30;;;;;;;7.55;4.43;;;11.10;99.90;;;;;;5114426;28;20046;-72
2022/04/21 07:13:56;;;;;;;6.70;4.30;;;11.10;99.90;;;;;;5078981;28;20039;-70
2022/04/21 07:16:22;;;;;;;5.47;4.28;;;11.10;99.90;;;;;;5114286;28;20448;-73
2022/04/21 07:18:47;;;;;;;8.98;4.68;;;11.10;99.90;;;;;;5096127;28;20042;-72
2022/04/21 07:21:13;;;;;;;5.28;4.47;;;11.20;99.90;;;;;;5095936;28;20112;-71
2022/04/21 07:23:39;;;;;;;7.05;4.20;;;11.30;99.90;;;;;;5095795;28;20168;-72
2022/04/21 07:26:05;;;;;;;6.82;4.75;;;11.30;99.90;;;;;;5114107;28;20089;-72
2022/04/21 07:28:32;;;;;;;8.68;4.47;;;11.40;99.90;;;;;;5095415;28;20047;-72
2022/04/21 07:30:57;;;;;;;6.03;3.95;;;11.50;99.90;;;;;;5095617;28;20044;-71
2022/04/21 07:33:23;;;;;;;6.97;4.13;;;11.60;99.90;;;;;;5114215;28;20040;-71
2022/04/21 07:35:48;;;;;;;4.95;4.07;;;11.60;99.90;;;;;;5114063;28;20039;-71
2022/04/21 07:38:14;;;;;;;9.23;3.90;;;11.70;99.90;;;;;;5113880;28;20046;-71
2022/04/21 07:40:40;;;;;;;6.95;4.00;;;11.80;99.90;;;;;;5113620;28;20088;-69
2022/04/21 07:43:08;;;;;;;6.88;4.20;;;11.90;99.90;;;;;;5095744;28;20039;-71
2022/04/21 07:45:38;;;;;;;5.97;3.45;;;11.90;99.90;;;;;;5095597;28;20051;-70
2022/04/21 07:48:04;;;;;;;5.68;3.90;;;11.90;99.60;;;;;;5095677;28;20100;-72
2022/04/21 07:50:30;;;;;;;9.18;3.83;;;12.10;99.90;;;;;;5095115;28;20093;-71
2022/04/21 07:53:13;;;;;;;6.95;4.10;;;12.10;99.20;;;;;;5113663;28;20035;-72
2022/04/21 07:55:44;;;;;;;5.13;3.20;;;12.10;97.50;;;;;;5094804;28;20032;-72
2022/04/21 07:58:10;;;;;;;4.57;3.53;;;12.10;96.00;;;;;;5113409;28;20040;-72
2022/04/21 08:00:38;;;;;;;4.50;3.47;;;12.20;98.90;;;;;;5094814;28;20035;-72
2022/04/21 08:03:04;;;;;;;4.03;3.40;;;12.30;97.40;;;;;;5095129;28;20123;-72
2022/04/21 08:05:30;;;;;;;7.78;3.70;;;12.40;97.00;;;;;;5078114;28;20051;-72
2022/04/21 08:07:56;;;;;;;7.22;3.35;;;12.50;95.40;;;;;;5095404;28;20419;-72
2022/04/21 08:10:23;;;;;;;5.45;3.15;;;12.60;97.90;;;;;;5094648;28;20056;-72
2022/04/21 08:12:51;;;;;;;6.30;3.20;;;12.50;94.70;;;;;;5113105;28;20131;-72
2022/04/21 08:15:30;;;;;;;5.30;4.20;;;12.70;93.30;;;;;;5094882;28;20054;-72
2022/04/21 08:18:01;;;;;;;5.15;3.42;;;12.70;92.00;;;;;;5095035;28;20043;-72
2022/04/21 08:20:29;;;;;;;4.88;3.28;;;12.70;93.60;;;;;;5077696;28;20130;-72
2022/04/21 08:22:55;;;;;;;3.80;3.20;;;12.70;93.40;;;;;;5077771;28;20035;-72
2022/04/21 08:33:51;;;;;;;6.53;3.25;;;13.10;95.10;;;;;;5013383;28;20053;-72
2022/04/21 08:36:17;;;;;;;6.93;3.78;;;13.20;94.50;;;;;;5095467;28;20056;-71
2022/04/21 08:38:43;;;;;;;7.03;3.47;;;13.20;95.80;;;;;;5094095;28;20077;-71
2022/04/21 08:41:16;;;;;;;3.42;2.95;;;13.40;91.00;;;;;;5112662;28;20075;-72
2022/04/21 08:43:41;;;;;;;6.43;3.80;;;13.40;94.40;;;;;;5112635;28;20817;-72
2022/04/21 08:46:12;;;;;;;6.57;3.45;;;13.30;93.30;;;;;;5094147;28;20047;-71
2022/04/21 08:48:40;;;;;;;3.90;3.22;;;13.30;91.20;;;;;;5093981;28;20050;-72
2022/04/21 08:51:08;;;;;;;7.28;4.18;;;13.50;93.90;;;;;;5094143;28;20126;-72
2022/04/21 08:53:35;;;;;;;4.82;3.92;;;13.50;93.60;;;;;;5112547;28;20088;-71
2022/04/21 08:56:01;;;;;;;6.22;3.88;;;13.60;93.80;;;;;;5094124;28;20039;-72
2022/04/21 08:58:27;;;;;;;7.80;3.58;;;13.50;90.40;;;;;;5093624;28;20051;-72
2022/04/21 09:00:54;;;;;;;9.35;3.95;;;13.60;92.00;;;;;;5112184;28;20410;-72
2022/04/21 09:03:20;;;;;;;9.43;3.40;;;13.80;90.60;;;;;;5093901;28;20085;-72
2022/04/21 09:05:45;;;;;;;4.50;3.35;;;13.70;90.90;;;;;;5093983;28;20075;-72
2022/04/21 09:08:25;;;;;;;9.43;3.88;;;13.80;91.70;;;;;;5093116;28;20071;-72
2022/04/21 09:11:08;;;;;;;6.45;3.70;;;13.90;88.60;;;;;;5090982;28;20500;-72
2022/04/21 09:13:40;;;;;;;7.18;3.85;;;13.90;90.30;;;;;;5093611;28;20074;-72
2022/04/21 09:16:08;;;;;;;4.53;2.72;;;13.80;87.50;;;;;;5093997;28;20143;-71
2022/04/21 09:18:37;;;;;;;6.78;3.47;;;14.00;91.20;;;;;;5111634;28;20067;-72
2022/04/21 09:21:14;;;;;;;5.63;3.60;;;13.90;88.30;;;;;;5093932;28;20128;-72
2022/04/21 09:23:41;;;;;;;6.15;3.50;;;14.00;85.10;;;;;;5093504;28;20127;-72
2022/04/21 09:26:09;;;;;;;5.30;3.05;;;14.00;86.40;;;;;;5093715;28;20044;-72
2022/04/21 09:28:34;;;;;;;6.82;3.42;;;14.20;85.30;;;;;;5090546;28;20027;-72
2022/04/21 09:31:01;;;;;;;11.23;3.78;;;14.10;86.40;;;;;;5107000;28;20125;-72
2022/04/21 09:33:37;;;;;;;5.53;3.00;;;14.10;83.60;;;;;;5083547;28;20031;-72
2022/04/21 09:36:07;;;;;;;;;;;14.20;86.30;;;;;;5113107;28;20102;-71
2022/04/21 09:38:37;;;;;;;10.65;3.88;;;14.20;77.30;;;;;;5080799;28;19970;-71
2022/04/21 09:41:10;;;;;;;12.35;3.45;;;14.20;78.90;;;;;;5092694;28;20598;-72
2022/04/21 09:43:37;;;;;;;6.13;3.20;;;14.30;84.60;;;;;;5086003;28;20035;-72
2022/04/21 09:46:13;;;;;;;13.80;3.70;;;14.40;76.80;;;;;;5089880;28;20073;-72
2022/04/21 09:48:39;;;;;;;8.38;3.22;;;14.30;79.70;;;;;;5089765;28;20039;-72
2022/04/21 09:51:12;;;;;;;5.43;3.40;;;14.70;85.30;;;;;;5084532;28;20051;-72
2022/04/21 09:53:59;;;;;;;6.13;3.70;;;14.60;72.00;;;;;;5084537;28;20403;-72
2022/04/21 09:56:33;;;;;;;7.95;2.92;;;14.60;73.70;;;;;;5092549;28;20082;-72
2022/04/21 09:59:04;;;;;;;10.07;2.90;;;14.70;68.10;;;;;;5110879;28;20114;-72
2022/04/21 10:01:30;;;;;;;6.80;3.47;;;14.70;78.10;;;;;;5093244;28;20096;-72
2022/04/21 10:03:56;;;;;;;6.63;3.45;;;14.70;74.00;;;;;;5111150;28;20040;-72
2022/04/21 10:06:22;;;;;;;5.55;3.25;;;14.60;75.30;;;;;;5093213;28;20409;-72
2022/04/21 10:08:51;;;;;;;6.35;3.28;;;14.60;74.20;;;;;;5092713;28;20061;-72
2022/04/21 10:11:23;;;;;;;5.65;3.42;;;14.60;77.30;;;;;;5092905;28;20047;-72
2022/04/21 10:13:53;;;;;;;6.93;3.25;;;14.70;84.90;;;;;;5092910;28;20511;-72
2022/04/21 10:16:18;;;;;;;6.10;3.05;;;14.90;84.50;;;;;;5092799;28;20044;-72
2022/04/21 10:18:47;;;;;;;3.40;2.80;;;15.10;77.50;;;;;;5094394;28;20039;-75
2022/04/21 10:21:19;;;;;;;6.05;3.00;;;15.10;73.00;;;;;;5096949;28;20051;-71
2022/04/21 10:23:45;;;;;;;8.40;3.58;;;15.30;68.80;;;;;;5096945;28;20044;-72
2022/04/21 10:26:10;;;;;;;5.35;3.28;;;15.10;77.00;;;;;;5097273;28;20039;-72
2022/04/21 10:28:38;;;;;;;11.77;3.65;;;14.90;72.60;;;;;;5096547;28;20050;-72
2022/04/21 10:31:43;;;;;;;5.15;3.20;;;14.80;72.30;;;;;;5096806;28;20046;-74
2022/04/21 10:34:09;;;;;;;6.35;3.50;;;14.90;75.80;;;;;;5087745;28;20115;-72
2022/04/21 10:36:46;;;;;;;8.27;3.40;;;14.90;76.10;;;;;;5087718;28;20119;-69
2022/04/21 10:39:23;;;;;;;9.75;3.78;;;15.00;76.50;;;;;;5105058;28;20093;-69
2022/04/21 10:42:11;;;;;;;5.32;3.40;;;14.90;71.00;;;;;;5086813;28;20032;-69
2022/04/21 10:44:48;;;;;;;4.90;3.08;;;15.20;68.40;;;;;;5105333;28;20035;-68
2022/04/21 10:47:33;;;;;;;7.60;3.28;;;15.00;61.00;;;;;;5109266;28;20054;-68
2022/04/21 10:50:01;;;;;;;10.50;3.25;;;15.00;64.10;;;;;;5103345;28;20051;-70
2022/04/21 10:57:49;;;;;;;9.65;3.40;;;15.50;81.00;;;;;;5100769;28;20116;-69
2022/04/21 11:00:28;;;;;;;6.07;3.85;;;15.50;68.10;;;;;;5089920;28;20139;-70
2022/04/21 11:03:05;;;;;;;8.57;4.07;;;15.40;65.20;;;;;;5103634;28;20381;-68
2022/04/21 11:05:33;;;;;;;5.32;3.70;;;15.40;68.30;;;;;;5099177;28;20044;-67
2022/04/21 11:08:04;;;;;;;6.70;3.42;;;15.40;69.60;;;;;;5108455;28;20376;-68
2022/04/21 11:10:38;;;;;;;5.43;3.80;;;15.50;66.90;;;;;;5113639;28;20610;-69
2022/04/21 11:13:06;;;;;;;5.72;3.80;;;15.30;67.00;;;;;;5112498;28;20043;-69
2022/04/21 11:15:45;;;;;;;3.92;3.17;;;15.40;65.30;;;;;;5113666;28;20094;-68
2022/04/21 11:18:22;;;;;;;6.32;3.40;;;15.40;68.30;;;;;;5113641;28;20515;-72
2022/04/21 11:20:51;;;;;;;6.53;3.13;;;15.60;66.60;;;;;;5095846;28;20074;-70
2022/04/21 11:23:29;;;;;;;4.93;2.92;;;15.90;65.20;;;;;;5113745;28;20052;-68
2022/04/21 11:26:05;;;;;;;5.57;4.03;;;16.00;62.10;;;;;;5113650;28;20043;-71
2022/04/21 11:28:31;;;;;;;7.43;3.72;;;16.00;61.20;;;;;;5113569;28;20043;-67
2022/04/21 11:30:59;;;;;;;5.60;3.35;;;15.90;62.40;;;;;;5112951;28;20044;-69
2022/04/21 11:33:25;;;;;;;8.63;3.42;;;16.00;63.00;;;;;;5113336;28;20036;-68
2022/04/21 11:36:09;;;;;;;6.68;3.78;;;16.10;63.80;;;;;;5113416;28;20047;-69
2022/04/21 11:38:36;;;;;;;5.13;3.40;;;15.80;59.30;;;;;;5129385;27;20040;-68
2022/04/21 11:41:07;;;;;;;4.95;3.53;;;15.70;64.80;;;;;;5113319;28;20043;-70
2022/04/21 11:43:35;;;;;;;4.22;3.40;;;15.70;59.80;;;;;;5112832;28;20091;-69
2022/04/21 11:46:01;;;;;;;8.13;3.60;;;15.90;60.50;;;;;;5113005;28;20043;-71
2022/04/21 11:48:40;;;;;;;4.90;3.53;;;16.00;65.30;;;;;;5095039;28;20047;-72
2022/04/21 11:51:06;;;;;;;7.32;4.00;;;15.80;61.50;;;;;;5113820;28;20515;-71
2022/04/21 11:53:36;;;;;;;6.00;4.22;;;15.90;62.80;;;;;;5113757;28;20042;-72
2022/04/21 11:56:03;;;;;;;4.85;3.10;;;15.80;66.60;;;;;;5095368;28;20040;-72
2022/04/21 11:58:30;;;;;;;5.32;2.97;;;16.20;59.10;;;;;;5113119;28;20043;-72
2022/04/21 12:06:38;;;;;;;7.33;3.73;;;16.20;60.90;;;;;;5095066;28;20047;-72
2022/04/21 12:09:12;;;;;;;6.43;3.78;;;16.10;60.60;;;;;;5094509;28;20105;-72
2022/04/21 12:11:39;;;;;;;6.50;4.03;;;16.10;63.60;;;;;;5095182;28;20070;-73
2022/04/21 12:14:05;;;;;;;8.52;4.63;;;16.00;65.60;;;;;;5094758;28;20039;-72
2022/04/21 12:16:43;;;;;;;7.15;4.43;;;16.20;63.50;;;;;;5095029;28;20043;-72
2022/04/21 12:19:17;;;;;;;8.98;3.78;;;16.20;64.10;;;;;;5094003;28;20042;-72
2022/04/21 12:21:44;;;;;;;6.22;3.60;;;16.40;65.10;;;;;;5094814;28;20032;-72
2022/04/21 12:24:15;;;;;;;7.57;4.00;;;16.30;62.00;;;;;;5094610;28;20032;-72
2022/04/21 12:26:51;;;;;;;8.15;4.20;;;16.30;68.50;;;;;;5094663;28;20036;-72
2022/04/21 12:29:19;;;;;;;6.35;4.00;;;16.30;61.60;;;;;;5094181;28;20054;-71
2022/04/21 12:31:53;;;;;;;6.45;4.00;;;16.50;64.60;;;;;;5094588;28;20036;-72
2022/04/21 12:34:28;;;;;;;6.28;3.83;;;16.60;66.70;;;;;;5094381;28;20042;-71
2022/04/21 12:37:05;;;;;;;5.45;3.20;;;16.40;62.50;;;;;;5094429;28;20043;-72
2022/04/21 12:39:31;;;;;;;6.32;3.28;;;16.60;62.80;;;;;;5094123;28;20039;-72
2022/04/21 12:41:58;;;;;;;7.43;4.15;;;16.60;61.70;;;;;;5111452;28;20422;-72
2022/04/21 12:44:25;;;;;;;6.97;3.53;;;16.50;62.80;;;;;;5094266;28;20122;-72
2022/04/21 12:47:05;;;;;;;12.35;3.50;;;16.60;63.00;;;;;;5112638;28;20061;-72
2022/04/21 12:50:03;;;;;;;7.25;3.90;;;16.50;63.20;;;;;;5094041;28;20042;-72
2022/04/21 12:52:30;;;;;;;12.95;4.35;;;16.50;60.30;;;;;;5112656;28;20106;-72
2022/04/21 12:54:56;;;;;;;5.75;3.67;;;16.60;59.30;;;;;;5094230;28;20141;-73
2022/04/21 12:57:21;;;;;;;5.53;3.28;;;16.60;57.60;;;;;;5112489;28;20114;-72
2022/04/21 12:59:47;;;;;;;7.68;4.13;;;16.60;58.20;;;;;;5093891;28;20514;-73
2022/04/21 13:02:16;;;;;;;5.78;4.00;;;16.60;62.60;;;;;;5105959;28;20048;-73
2022/04/21 13:04:41;;;;;;;7.10;4.13;;;16.60;61.30;;;;;;5112140;28;20495;-72
2022/04/21 13:07:10;;;;;;;6.60;3.80;;;16.60;61.80;;;;;;5093954;28;20130;-73
2022/04/21 13:09:36;;;;;;;5.13;3.22;;;16.60;58.90;;;;;;5093421;28;20050;-73
2022/04/21 13:12:02;;;;;;;6.35;3.65;;;16.50;60.80;;;;;;5093811;28;20039;-73
2022/04/21 13:14:28;;;;;;;7.25;4.03;;;16.40;61.80;;;;;;5112020;28;20163;-73
2022/04/21 13:16:54;;;;;;;4.88;3.47;;;16.40;62.80;;;;;;5093991;28;20114;-73
2022/04/21 13:19:19;;;;;;;5.47;4.10;;;16.30;63.10;;;;;;5093209;28;20078;-72
2022/04/21 13:21:55;;;;;;;6.93;4.03;;;16.40;64.60;;;;;;5076721;28;20040;-72
2022/04/21 13:24:22;;;;;;;8.02;4.07;;;16.40;63.70;;;;;;5093407;28;20043;-72
2022/04/21 13:26:48;;;;;;;5.88;4.10;;;16.60;65.10;;;;;;5093512;28;20149;-72
2022/04/21 13:29:14;;;;;;;7.78;3.65;;;16.70;64.20;;;;;;5111490;28;20179;-72
2022/04/21 13:34:23;;;;;;;6.57;3.65;;;16.80;62.80;;;;;;5093548;28;20392;-72
2022/04/21 13:36:49;;;;;;;7.57;3.70;;;16.70;61.10;;;;;;5093637;28;20039;-72
2022/04/21 13:39:15;;;;;;;5.38;3.70;;;16.50;60.50;;;;;;5092935;28;20035;-72
2022/04/21 13:41:41;;;;;;;8.93;3.53;;;16.60;61.80;;;;;;5111662;28;20126;-72